Cape Nelson, Australia
Current Conditions -  °F | °C
As of 1:00 PM on Tuesday 23 Dec 2014 (Local Time) from YMTG Reporting Station
Drizzle Drizzle  
Wind Chill: 63°   Ceiling: 1700
Heat Index: 63°   Visibility: 6mi
Dew Point: 54°   Wind: 16mph
Humidity: 72%   Direction: 210°SSW
Pressure: 29.91"   Gusts: NA
Location:  38.38°S, 141.57°E
Report Text: YMTG 230200Z 21014KT 9999 -DZ OVC017 17/12 Q1013
Loading
Personal Weather Stations






























Interactive Weather Map New forecast layout! Learn more

10-Day Weather Forecast

Advertisements
Track Severe Weather on mobile